createdAt,value
2023-03-26T00:02:15.523Z,46.90
2023-03-26T00:05:19.183Z,54.05
2023-03-26T00:08:22.731Z,53.05
2023-03-26T00:11:28.093Z,56.28
2023-03-26T00:14:31.421Z,52.23
2023-03-26T00:17:35.132Z,53.85
2023-03-26T00:20:39.027Z,50.75
2023-03-26T00:23:43.585Z,49.20
2023-03-26T00:26:52.168Z,47.30
2023-03-26T00:29:57.030Z,48.20
2023-03-26T00:33:03.319Z,46.33
2023-03-26T00:36:11.451Z,48.47
2023-03-26T00:39:16.066Z,53.03
2023-03-26T00:42:18.991Z,62.30
2023-03-26T00:45:55.961Z,66.50
2023-03-26T00:49:01.008Z,71.70
2023-03-26T00:52:05.023Z,70.55
2023-03-26T00:55:09.080Z,62.50
2023-03-26T00:58:13.335Z,52.88
2023-03-26T01:01:21.404Z,46.40
2023-03-26T01:04:31.814Z,39.75
2023-03-26T01:07:35.681Z,40.88
2023-03-26T01:10:39.693Z,34.28
2023-03-26T01:13:50.790Z,33.05
2023-03-26T01:17:02.278Z,32.43
2023-03-26T01:20:27.266Z,39.58
2023-03-26T01:23:49.649Z,36.55
2023-03-26T01:27:10.830Z,33.83
2023-03-26T01:30:35.788Z,34.65
2023-03-26T01:33:46.958Z,32.87
2023-03-26T01:37:18.606Z,28.48
2023-03-26T01:40:27.803Z,21.50
2023-03-26T01:43:40.200Z,21.92
2023-03-26T01:46:45.556Z,10.45
2023-03-26T01:49:49.661Z,7.80
2023-03-26T01:52:52.684Z,4.90
2023-03-26T01:56:14.003Z,3.50
2023-03-26T01:59:43.141Z,4.35
2023-03-26T02:02:55.371Z,5.53
2023-03-26T02:06:08.712Z,5.07
2023-03-26T02:09:18.796Z,5.40
2023-03-26T02:12:23.830Z,6.13
2023-03-26T02:15:27.463Z,8.25
2023-03-26T02:18:37.541Z,14.75
2023-03-26T02:21:41.176Z,9.20
2023-03-26T02:24:45.119Z,5.35
2023-03-26T02:27:49.919Z,8.27
2023-03-26T02:30:58.562Z,17.45
2023-03-26T02:34:01.772Z,10.93
2023-03-26T02:37:07.654Z,10.00
2023-03-26T02:40:36.079Z,6.13
2023-03-26T02:43:39.118Z,7.10
2023-03-26T02:46:45.361Z,6.13
2023-03-26T02:50:17.813Z,7.13
2023-03-26T02:53:41.815Z,8.97
2023-03-26T02:57:03.690Z,9.73
2023-03-26T03:00:26.388Z,6.28
2023-03-26T03:03:50.483Z,6.20
2023-03-26T03:07:15.273Z,5.43
2023-03-26T03:10:22.403Z,3.57
2023-03-26T03:13:49.443Z,7.63
2023-03-26T03:17:11.382Z,4.60
2023-03-26T03:20:14.503Z,4.60
2023-03-26T03:23:17.901Z,4.72
2023-03-26T03:26:24.149Z,5.20
2023-03-26T03:29:28.872Z,4.82
2023-03-26T03:32:37.111Z,5.07
2023-03-26T03:35:42.064Z,6.07
2023-03-26T03:38:46.729Z,4.60
2023-03-26T03:41:54.261Z,3.83
2023-03-26T03:44:58.090Z,3.20
2023-03-26T03:48:20.415Z,3.92
2023-03-26T03:51:25.390Z,5.75
2023-03-26T03:55:03.231Z,3.30
2023-03-26T03:58:22.292Z,1.80
2023-03-26T04:01:27.799Z,3.22
2023-03-26T04:04:36.470Z,3.50
2023-03-26T04:07:42.197Z,3.28
2023-03-26T04:11:00.508Z,3.63
2023-03-26T04:14:41.433Z,3.10
2023-03-26T04:17:49.253Z,2.60
2023-03-26T04:20:55.188Z,2.83
2023-03-26T04:24:03.750Z,2.95
2023-03-26T04:27:35.181Z,3.03
2023-03-26T04:30:54.304Z,3.47
2023-03-26T04:34:20.279Z,3.22
2023-03-26T04:37:46.969Z,3.38
2023-03-26T04:40:54.582Z,2.72
2023-03-26T04:44:15.189Z,2.78
2023-03-26T04:47:27.617Z,2.87
2023-03-26T04:50:30.847Z,2.50
2023-03-26T04:53:36.093Z,2.55
2023-03-26T04:57:05.271Z,2.70
2023-03-26T05:00:22.090Z,3.35
2023-03-26T05:03:35.834Z,3.07
2023-03-26T05:06:44.021Z,2.50
2023-03-26T05:09:58.045Z,2.50
2023-03-26T05:13:13.996Z,2.50
2023-03-26T05:16:23.028Z,2.25
2023-03-26T05:19:33.325Z,2.07
2023-03-26T05:22:38.118Z,2.00
2023-03-26T05:25:52.441Z,2.13
2023-03-26T05:28:58.861Z,1.80
2023-03-26T05:32:09.890Z,2.25
2023-03-26T05:35:14.045Z,2.13
2023-03-26T05:38:18.759Z,1.70
2023-03-26T05:41:22.511Z,1.50
2023-03-26T05:44:26.714Z,1.50
2023-03-26T05:47:30.809Z,2.53
2023-03-26T05:50:34.101Z,2.80
2023-03-26T05:53:37.236Z,1.67
2023-03-26T05:56:58.020Z,2.90
2023-03-26T06:00:19.362Z,2.92
2023-03-26T06:03:23.688Z,3.10
2023-03-26T06:06:33.277Z,3.83
2023-03-26T06:09:40.775Z,10.23
2023-03-26T06:12:44.525Z,2.08
2023-03-26T06:15:49.139Z,2.95
2023-03-26T06:19:14.094Z,1.92
2023-03-26T06:22:48.340Z,2.57
2023-03-26T06:26:11.843Z,2.35
2023-03-26T06:29:33.325Z,2.20
2023-03-26T06:32:49.914Z,1.60
2023-03-26T06:35:59.652Z,1.55
2023-03-26T06:39:02.536Z,1.90
2023-03-26T06:42:16.661Z,3.75
2023-03-26T06:45:20.318Z,2.35
2023-03-26T06:48:53.222Z,2.53
2023-03-26T06:52:32.168Z,3.92
2023-03-26T06:55:59.343Z,4.47
2023-03-26T06:59:24.736Z,3.30
2023-03-26T07:02:47.145Z,3.30
2023-03-26T07:06:09.739Z,4.82
2023-03-26T07:09:31.730Z,4.30
2023-03-26T07:13:10.922Z,3.40
2023-03-26T07:16:44.126Z,3.10
2023-03-26T07:20:11.877Z,2.47
2023-03-26T07:23:20.922Z,3.08
2023-03-26T07:26:50.152Z,3.22
2023-03-26T07:30:02.830Z,4.00
2023-03-26T07:34:04.564Z,4.38
2023-03-26T07:37:46.109Z,3.20
2023-03-26T07:41:39.624Z,3.40
2023-03-26T07:45:26.722Z,3.63
2023-03-26T07:48:49.411Z,3.60
2023-03-26T07:52:13.435Z,2.63
2023-03-26T07:55:33.265Z,2.70
2023-03-26T07:59:11.805Z,4.05
2023-03-26T08:02:44.781Z,3.17
2023-03-26T08:06:19.806Z,2.97
2023-03-26T08:10:00.342Z,2.58
2023-03-26T08:13:28.106Z,3.22
2023-03-26T08:16:44.038Z,2.67
2023-03-26T08:19:58.579Z,3.15
2023-03-26T08:23:50.560Z,2.80
2023-03-26T08:27:14.757Z,4.30
2023-03-26T08:30:28.451Z,3.47
2023-03-26T08:33:31.753Z,3.03
2023-03-26T08:36:34.786Z,2.72
2023-03-26T08:39:42.625Z,3.50
2023-03-26T08:43:23.652Z,3.45
2023-03-26T08:46:43.034Z,7.93
2023-03-26T08:50:08.092Z,3.58
2023-03-26T08:53:32.632Z,2.80
2023-03-26T08:56:53.837Z,2.37
2023-03-26T09:00:23.218Z,3.30
2023-03-26T09:03:44.312Z,3.05
2023-03-26T09:07:07.909Z,2.90
2023-03-26T09:10:19.405Z,3.22
2023-03-26T09:13:35.285Z,4.07
2023-03-26T09:16:44.183Z,3.85
2023-03-26T09:20:24.767Z,4.07
2023-03-26T09:23:39.570Z,5.50
2023-03-26T09:26:48.599Z,6.57
2023-03-26T09:30:05.584Z,6.10
2023-03-26T09:33:30.141Z,5.75
2023-03-26T09:36:46.069Z,6.25
2023-03-26T09:40:05.696Z,6.70
2023-03-26T09:43:27.140Z,5.53
2023-03-26T09:46:52.311Z,4.20
2023-03-26T09:50:04.626Z,3.80
2023-03-26T09:53:16.530Z,3.08
2023-03-26T09:56:51.537Z,4.20
2023-03-26T10:00:29.651Z,4.55
2023-03-26T10:03:54.965Z,4.80
2023-03-26T10:07:06.697Z,5.78
2023-03-26T10:10:10.059Z,4.68
2023-03-26T10:13:34.825Z,4.90
2023-03-26T10:16:59.571Z,5.13
2023-03-26T10:20:18.219Z,5.63
2023-03-26T10:23:33.496Z,9.35
2023-03-26T10:27:08.384Z,12.68
2023-03-26T10:30:20.701Z,10.13
2023-03-26T10:33:30.406Z,10.25
2023-03-26T10:36:36.838Z,12.00
2023-03-26T10:40:09.010Z,14.07
2023-03-26T10:43:28.524Z,12.65
2023-03-26T10:47:11.841Z,10.60
2023-03-26T10:50:23.509Z,12.57
2023-03-26T10:53:51.669Z,17.93
2023-03-26T10:56:57.777Z,20.27
2023-03-26T11:00:14.131Z,18.88
2023-03-26T11:03:28.334Z,20.70
2023-03-26T11:06:41.987Z,19.80
2023-03-26T11:10:02.947Z,21.40
2023-03-26T11:13:45.731Z,20.33
2023-03-26T11:17:40.842Z,33.72
2023-03-26T11:20:54.612Z,51.45
2023-03-26T11:24:50.112Z,56.35
2023-03-26T11:28:10.521Z,57.93
2023-03-26T11:31:37.935Z,47.65
2023-03-26T11:35:18.269Z,43.47
2023-03-26T11:39:11.379Z,42.20
2023-03-26T11:42:18.252Z,60.90
2023-03-26T11:45:25.701Z,54.07
2023-03-26T11:48:35.049Z,55.10
2023-03-26T11:51:43.692Z,58.35
2023-03-26T11:54:49.334Z,47.58
2023-03-26T11:57:58.118Z,37.88
2023-03-26T12:01:06.266Z,35.30
2023-03-26T12:04:15.104Z,25.50
2023-03-26T12:11:04.371Z,21.63
2023-03-26T12:14:08.139Z,32.20
2023-03-26T12:17:31.475Z,32.93
2023-03-26T12:20:37.578Z,23.80
2023-03-26T12:24:00.599Z,23.55
2023-03-26T12:27:22.932Z,20.92
2023-03-26T12:30:29.186Z,18.23
2023-03-26T12:33:36.029Z,21.33
2023-03-26T12:36:39.821Z,26.77
2023-03-26T12:40:10.169Z,27.35
2023-03-26T12:44:54.972Z,28.15
2023-03-26T12:47:57.272Z,29.27
2023-03-26T12:50:15.223Z,36.63
2023-03-26T12:53:30.596Z,32.25
2023-03-26T12:56:45.266Z,36.13
2023-03-26T13:00:05.020Z,39.03
2023-03-26T13:03:44.390Z,35.38
2023-03-26T13:07:00.437Z,36.20
2023-03-26T13:10:09.029Z,35.03
2023-03-26T13:13:32.347Z,36.40
2023-03-26T13:17:28.034Z,40.30
2023-03-26T13:20:52.446Z,31.98
2023-03-26T13:24:01.808Z,40.63
2023-03-26T13:27:38.864Z,37.80
2023-03-26T13:30:54.052Z,33.58
2023-03-26T13:34:11.049Z,34.13
2023-03-26T13:37:31.520Z,28.35
2023-03-26T13:41:14.575Z,35.03
2023-03-26T13:44:45.361Z,32.57
2023-03-26T13:47:51.735Z,24.98
2023-03-26T13:51:46.712Z,29.08
2023-03-26T13:55:19.018Z,24.65
2023-03-26T13:58:34.394Z,27.98
2023-03-26T14:01:47.341Z,20.83
2023-03-26T14:05:00.522Z,25.05
2023-03-26T14:08:21.195Z,21.15
2023-03-26T14:11:44.518Z,14.90
2023-03-26T14:15:19.334Z,13.55
2023-03-26T14:18:47.160Z,15.80
2023-03-26T14:22:22.703Z,13.85
2023-03-26T14:26:03.381Z,10.73
2023-03-26T14:29:15.677Z,15.13
2023-03-26T14:32:33.945Z,15.23
2023-03-26T14:35:43.660Z,19.60
2023-03-26T14:39:13.805Z,25.67
2023-03-26T14:42:46.970Z,25.30
2023-03-26T14:46:14.720Z,21.80
2023-03-26T14:49:36.648Z,15.30
2023-03-26T14:53:01.172Z,15.43
2023-03-26T14:56:15.068Z,26.40
2023-03-26T14:59:30.498Z,29.15
2023-03-26T15:03:08.917Z,28.17
2023-03-26T15:06:23.735Z,37.10
2023-03-26T15:09:47.204Z,31.00
2023-03-26T15:13:27.919Z,33.38
2023-03-26T15:17:10.158Z,21.65
2023-03-26T15:20:33.166Z,18.85
2023-03-26T15:23:47.217Z,19.08
2023-03-26T15:27:11.671Z,16.73
2023-03-26T15:30:37.352Z,14.15
2023-03-26T15:34:21.939Z,14.40
2023-03-26T15:37:57.749Z,14.23
2023-03-26T15:41:28.696Z,22.10
2023-03-26T15:44:55.483Z,22.30
2023-03-26T15:48:14.464Z,21.30
2023-03-26T15:51:47.491Z,21.23
2023-03-26T15:55:19.568Z,20.15
2023-03-26T15:58:31.800Z,17.60
2023-03-26T16:02:08.062Z,13.90
2023-03-26T16:05:28.686Z,14.05
2023-03-26T16:08:53.416Z,16.08
2023-03-26T16:12:00.095Z,17.13
2023-03-26T16:15:07.802Z,17.50
2023-03-26T16:18:12.866Z,20.85
2023-03-26T16:21:37.656Z,17.35
2023-03-26T16:24:47.557Z,16.77
2023-03-26T16:28:08.306Z,14.68
2023-03-26T16:31:35.080Z,14.18
2023-03-26T16:34:51.210Z,13.13
2023-03-26T16:38:14.588Z,12.00
2023-03-26T16:41:30.499Z,11.52
2023-03-26T16:45:01.686Z,10.30
2023-03-26T16:48:08.276Z,13.23
2023-03-26T16:51:24.833Z,11.57
2023-03-26T16:54:47.943Z,10.52
2023-03-26T16:58:12.832Z,12.90
2023-03-26T17:01:43.483Z,11.68
2023-03-26T17:04:52.401Z,14.93
2023-03-26T17:08:01.726Z,14.10
2023-03-26T17:11:26.350Z,15.23
2023-03-26T17:14:34.962Z,14.90
2023-03-26T17:18:16.343Z,16.00
2023-03-26T17:21:22.757Z,19.52
2023-03-26T17:24:35.630Z,19.58
2023-03-26T17:28:17.991Z,18.85
2023-03-26T17:31:56.904Z,18.65
2023-03-26T17:35:08.139Z,15.65
2023-03-26T17:38:31.994Z,16.27
2023-03-26T17:41:55.215Z,13.25
2023-03-26T17:45:18.565Z,12.75
2023-03-26T17:48:24.517Z,12.98
2023-03-26T17:51:39.225Z,13.35
2023-03-26T17:54:45.923Z,12.07
2023-03-26T17:57:57.220Z,11.73
2023-03-26T18:01:36.625Z,10.20
2023-03-26T18:04:45.650Z,10.27
2023-03-26T18:08:19.794Z,11.10
2023-03-26T18:11:42.190Z,10.30
2023-03-26T18:15:36.684Z,8.45
2023-03-26T18:18:40.374Z,8.07
2023-03-26T18:21:45.812Z,8.55
2023-03-26T18:24:50.120Z,6.93
2023-03-26T18:27:54.225Z,7.40
2023-03-26T18:31:09.991Z,6.68
2023-03-26T18:34:19.597Z,8.75
2023-03-26T18:37:36.718Z,8.57
2023-03-26T18:40:45.085Z,7.78
2023-03-26T18:43:48.780Z,8.88
2023-03-26T18:46:56.884Z,7.90
2023-03-26T18:50:01.055Z,7.27
2023-03-26T18:53:07.874Z,6.93
2023-03-26T18:56:37.746Z,7.00
2023-03-26T18:59:46.147Z,5.97
2023-03-26T19:02:52.221Z,6.05
2023-03-26T19:05:59.096Z,6.97
2023-03-26T19:09:13.525Z,6.43
2023-03-26T19:12:33.383Z,7.13
2023-03-26T19:15:37.200Z,9.30
2023-03-26T19:18:44.163Z,8.32
2023-03-26T19:21:47.444Z,8.73
2023-03-26T19:24:56.771Z,10.55
2023-03-26T19:28:00.563Z,9.55
2023-03-26T19:31:23.861Z,7.22
2023-03-26T19:34:32.175Z,6.97
2023-03-26T19:37:35.635Z,6.57
2023-03-26T19:40:43.813Z,7.65
2023-03-26T19:47:31.934Z,7.55
2023-03-26T19:50:43.888Z,8.35
2023-03-26T19:51:18.146Z,7.38
2023-03-26T19:53:52.181Z,7.50
2023-03-26T19:56:55.361Z,10.23
2023-03-26T19:59:59.096Z,10.88
2023-03-26T20:03:02.192Z,11.02
2023-03-26T20:06:06.339Z,15.68
2023-03-26T20:09:11.872Z,15.95
2023-03-26T20:12:16.123Z,15.23
2023-03-26T20:15:24.377Z,11.85
2023-03-26T20:18:28.433Z,8.43
2023-03-26T20:21:33.302Z,12.23
2023-03-26T20:24:36.236Z,63.50
2023-03-26T20:27:40.132Z,57.67
2023-03-26T20:30:43.236Z,63.35
2023-03-26T20:33:48.879Z,47.35
2023-03-26T20:36:55.876Z,77.65
2023-03-26T20:40:00.459Z,38.67
2023-03-26T20:43:04.218Z,36.53
2023-03-26T20:46:08.293Z,32.63
2023-03-26T20:49:13.239Z,29.43
2023-03-26T20:52:16.487Z,24.98
2023-03-26T20:55:24.249Z,21.02
2023-03-26T20:58:30.776Z,22.08
2023-03-26T21:01:35.918Z,17.73
2023-03-26T21:04:39.958Z,15.57
2023-03-26T21:07:43.611Z,13.95
2023-03-26T21:10:48.638Z,13.17
2023-03-26T21:14:00.703Z,15.52
2023-03-26T21:17:05.062Z,12.57
2023-03-26T21:20:12.107Z,13.60
2023-03-26T21:23:31.215Z,14.48
2023-03-26T21:26:59.760Z,11.95
2023-03-26T21:30:07.094Z,14.07
2023-03-26T21:33:10.730Z,13.93
2023-03-26T21:36:15.105Z,12.10
2023-03-26T21:39:18.813Z,12.60
2023-03-26T21:42:22.406Z,15.00
2023-03-26T21:45:27.292Z,15.07
2023-03-26T21:48:30.580Z,13.70
2023-03-26T21:51:34.480Z,14.03
2023-03-26T21:54:37.689Z,15.23
2023-03-26T21:57:56.039Z,15.38
2023-03-26T22:01:17.612Z,14.30
2023-03-26T22:04:32.713Z,13.80
2023-03-26T22:07:54.428Z,14.50
2023-03-26T22:10:58.817Z,14.45
2023-03-26T22:14:03.342Z,38.53
2023-03-26T22:17:07.627Z,32.10
2023-03-26T22:20:13.292Z,19.33
2023-03-26T22:23:19.882Z,17.60
2023-03-26T22:26:24.836Z,14.73
2023-03-26T22:29:28.959Z,15.57
2023-03-26T22:32:34.950Z,14.85
2023-03-26T22:35:45.994Z,17.35
2023-03-26T22:38:49.775Z,18.25
2023-03-26T22:41:53.015Z,18.67
2023-03-26T22:44:56.030Z,15.40
2023-03-26T22:48:03.744Z,15.75
2023-03-26T22:51:09.787Z,17.95
2023-03-26T22:54:13.769Z,13.63
2023-03-26T22:57:18.104Z,13.95
2023-03-26T23:00:22.562Z,20.77
2023-03-26T23:03:35.263Z,44.97
2023-03-26T23:06:39.359Z,54.90
2023-03-26T23:09:42.884Z,53.10
2023-03-26T23:12:46.208Z,54.95
2023-03-26T23:15:57.794Z,51.10
2023-03-26T23:19:01.409Z,50.40
2023-03-26T23:22:05.097Z,51.90
2023-03-26T23:25:10.440Z,48.50
2023-03-26T23:28:15.097Z,44.08
2023-03-26T23:31:18.600Z,45.38
2023-03-26T23:34:22.468Z,42.95
2023-03-26T23:37:26.118Z,41.95
2023-03-26T23:40:29.757Z,44.40
2023-03-26T23:43:33.960Z,47.30
2023-03-26T23:46:37.534Z,50.77
2023-03-26T23:49:40.417Z,49.20
2023-03-26T23:52:46.656Z,43.97
2023-03-26T23:55:52.225Z,45.27
2023-03-26T23:58:56.541Z,45.03
